Flight Track Log - Related Links

Times and Time Zones

All times are in EDT time to prevent confusion due to time zone crossing. See the SKW6446 flight status page for this flight to view local times or setup timezone preferences in your user account.

Time Position Orientation Groundspeed Altitude Reporting Facility
EDT Latitude Longitude Course Direction KTS MPH feet Rate Location/Type
Thu 09:26:17 PM 34.9381 -120.4539 North 173 199 3,200  Level Los Angeles Center
Thu 09:27:18 PM 34.9103 -120.4006 122° Southeast 193 222 5,400 1,805 Climbing Los Angeles Center
Thu 09:28:00 PM 34.7850 -120.2055 112° Southeast  Level Estimated
Thu 09:28:20 PM 34.8764 -120.3497 129° Southeast 192 221 6,900  Level Los Angeles Center
Thu 09:29:00 PM 34.7466 -120.1215 132° Southeast  Level Estimated
Thu 09:29:22 PM 34.8425 -120.2942 127° Southeast 199 229 8,500  Level Los Angeles Center
Thu 09:30:00 PM 34.7081 -120.0376 116° Southeast  Level Estimated
Thu 09:30:24 PM 34.8081 -120.2372 126° Southeast 206 237 10,200  Level Los Angeles Center
Thu 09:31:26 PM 34.7664 -120.1689 127° Southeast 209 241 12,000 1,512 Climbing Los Angeles Center
Thu 09:32:27 PM 34.7294 -120.1111 128° Southeast 213 245 13,300 1,024 Climbing Los Angeles Center
Thu 09:33:29 PM 34.7019 -120.0711 130° Southeast 218 251 14,100 823 Climbing Los Angeles Center
Thu 09:34:31 PM 34.6458 -119.9872 129° Southeast 229 264 15,000 435 Climbing Los Angeles Center
Thu 09:35:33 PM 34.6003 -119.9128 127° Southeast 269 310 15,000  Level Los Angeles Center
Thu 09:36:34 PM 34.5561 -119.8481 130° Southeast 273 314 15,000  Level Los Angeles Center
Thu 09:37:36 PM 34.4983 -119.7608 129° Southeast 276 318 15,000  Level Los Angeles Center
Thu 09:38:38 PM 34.4553 -119.6839 124° Southeast 278 320 15,000  Level Los Angeles Center
Thu 09:39:40 PM 34.4147 -119.6056 122° Southeast 277 319 15,000  Level Los Angeles Center
Thu 09:40:41 PM 34.3775 -119.5247 119° Southeast 276 318 15,000 -537 Level Los Angeles Center
Thu 09:41:43 PM 34.3553 -119.4297 106° East 291 335 13,900 -1,161 Descending Los Angeles Center
Thu 09:42:45 PM 34.3328 -119.3267 105° East 318 366 12,600 -1,161 Descending Los Angeles Center
Thu 09:43:47 PM 34.3064 -119.2289 108° East 309 356 11,500 -780 Descending Los Angeles Center
Thu 09:44:48 PM 34.2772 -119.1144 107° East 296 341 11,000 -244 Descending Los Angeles Center
Thu 09:45:50 PM 34.2456 -119.0308 115° Southeast 278 320 11,000 -97 Level Los Angeles Center
Thu 09:46:52 PM 34.2008 -118.9531 125° Southeast 282 325 10,800 -484 Descending Los Angeles Center
Thu 09:47:54 PM 34.1500 -118.8764 129° Southeast 291 335 10,000 -390 Descending Los Angeles Center
Thu 09:48:55 PM 34.1086 -118.7989 123° Southeast 275 316 10,000  Level Los Angeles Center
Thu 09:49:57 PM 34.0733 -118.7331 123° Southeast 268 308 10,000 -242 Level Los Angeles Center
Thu 09:50:59 PM 34.0500 -118.6186 104° East 269 310 9,500 -878 Descending Los Angeles Center
Thu 09:52:00 PM 34.0264 -118.5264 107° East 287 330 8,200 -1,073 Descending Los Angeles Center
Thu 09:53:02 PM 34.0142 -118.4367 99° East 271 312 7,300 -1,258 Descending Los Angeles Center
Thu 09:54:04 PM 34.0250 -118.3436 82° East 275 316 5,600 -1,597 Descending Los Angeles Center
Thu 09:55:06 PM 34.0339 -118.2494 83° East 281 323 4,000 -1,415 Descending Los Angeles Center
Thu 09:56:07 PM 33.9864 -118.2297 161° South 240 276 2,700 -1,279 Descending Los Angeles Center

Login

Don't have an account? Register now (free) for customized features, flight alerts, and more!